Domov               UVHVVR             MKGP            O straneh              
ZDRAVSTVENO VARSTVO RASTLIN
  MREŽA AGROMET. POSTAJ
 ► PROGNOSTIČNA OBVESTILA
AGROMETEOROLOŠKI PODATKI -
ARSO
OBVLADOVANJE TVEGANJ ZARADI
NEUGODNIH VREMENSKIH RAZMER
  ► NARAVNE NESREČE
  ► SUŠA/MOČA
  ► NAMAKANJE
  ► ŽLED (gozdarstvo)
KARTOGRAFSKI PRIKAZI
SPLETNE POVEZAVE
PROJEKTI IN PUBLIKACIJE

AGROMETEOROLOŠKA MREŽA: VREMENSKE POSTAJE IN FENOLOŠKA OPAZOVANJA

Pregled podatkov za lokacijo Kozana, meteorološka postaja 863701

Pregled senzorjev na lokaciji

ID Ime Zadnja
vrednost
Datum
zadnje
spremembe
Tip
senzorja
4188 Omočenost lista (U) 9 U 23.7.2018 05:00 A730WET
4189 Padavine (mm) 0 mm 23.7.2018 05:00 Rain-O-Matic
4187 Relativna vlaga 2 m (% RH) 89,91 % RH 23.7.2018 05:00 50YA
4186 Temperatura 2 m (°C) 18,06 °C 23.7.2018 05:30 50YA

Pregled podatkov zadnjih 24 ur

Zap.
št.
Datum in čas Kozana
Omočenost
lista
Padavine Relativna
vlaga
2
m
Temperatura
2
m
1 23.7.2018 05:30
2 23.7.2018 05:00
3 23.7.2018 04:30
4 23.7.2018 04:00 9 0 89,9 18,2
5 23.7.2018 03:30 4 0 89,1 18,5
6 23.7.2018 03:00 7 0 86,6 19
7 23.7.2018 02:30 10 0 92,9 18,2
8 23.7.2018 02:00 8 0 92,8 18,4
9 23.7.2018 01:30 3 0 90,1 18,9
10 23.7.2018 01:00 1 0 85,9 19,6
11 23.7.2018 00:30 6 0 89,9 19,3
12 23.7.2018 00:00 3 0 87,5 19,7
13 22.7.2018 23:30 0 0 84,3 20,2
14 22.7.2018 23:00 0 0 87,1 19,8
15 22.7.2018 22:30 1 0 90,7 19,4
16 22.7.2018 22:00 5 0,2 92,2 19,2
17 22.7.2018 21:30 8 0 92 19,3
18 22.7.2018 21:00 4 0 89,3 19,5
19 22.7.2018 20:30 0 0 87,8 19,7
20 22.7.2018 20:00 1 0 86,8 19,7
21 22.7.2018 19:30 10 0,2 92,3 18,8
22 22.7.2018 19:00 10 0 88,2 19,3
23 22.7.2018 18:30 7 0 86 19,6
24 22.7.2018 18:00 9 0,2 88 19,5
25 22.7.2018 17:30 9 0,2 89,2 19,5
26 22.7.2018 17:00 10 0,2 88,8 19,8
27 22.7.2018 16:30 9 0 90,7 19,9
28 22.7.2018 16:00 1 0 89,3 19,7
29 22.7.2018 15:30 9 0,8 92,8 19,6
30 22.7.2018 15:00 9 0,4 76,7 22
31 22.7.2018 14:30 0 0 67,4 24,7
32 22.7.2018 14:00 5 0,2 66,8 24,6
33 22.7.2018 13:30 0 0 51,6 28,4
34 22.7.2018 13:00 0 0 45,6 30,3
35 22.7.2018 12:30 0 0 48,7 29,6
36 22.7.2018 12:00 0 0 50,9 29,1
37 22.7.2018 11:30 0 0 57,1 27,8
38 22.7.2018 11:00 0 0 59,7 27,4
39 22.7.2018 10:30 0 0 64,6 25,7
40 22.7.2018 10:00 0 0 68,2 24,3
41 22.7.2018 09:30 0 0 66,4 24,5
42 22.7.2018 09:00 0 0 70,1 23,4
43 22.7.2018 08:30 0 0 73,1 22,3
44 22.7.2018 08:00 0 0 73 22,3
45 22.7.2018 07:30 0 0 74 21,5
46 22.7.2018 07:00 0 0 77,4 20,9
47 22.7.2018 06:30 0 0 81,5 19,8
48 22.7.2018 06:00 0 0 84,3 19,2
© 2011 Ministrstvo za kmetijstvo, gozdarstvo in prehrano. Vse pravice pridržane.